JJP380 ROAH-RJGG
Flight info
| Callsign | JJP380 |
|---|---|
| Flight time | 1h 47m |
| Altitude | 37000 |
| Route | AMAMI Y574 SHIBK Y57 YULIA Y575 ALBAT Y755 CARDS |
| Aircraft | A320/M-SDE3FGHIRWY/LB1 |
Departure
| Time | 2026-04-26 15:59 |
|---|---|
| Airport | Naha International Airport (ROAH) |
Arrival
| Time | 2026-04-26 17:47 |
|---|---|
| Airport | Chubu Centrair International Airport (RJGG) |
| Time | Latitude | Longitude | Altitude | Speed | Heading |
|---|---|---|---|---|---|
| 2026-04-26 15:20 | 26.20560 | 127.65005 | 28 ft | 0 kts | 147° |
| 2026-04-26 15:48 | 26.20572 | 127.64996 | 28 ft | 4 kts | 147° |
| 2026-04-26 15:49 | 26.20595 | 127.64979 | 28 ft | 4 kts | 148° |
| 2026-04-26 15:49 | 26.20619 | 127.64965 | 28 ft | 4 kts | 162° |
| 2026-04-26 15:49 | 26.20645 | 127.64960 | 28 ft | 4 kts | 187° |
| 2026-04-26 15:49 | 26.20662 | 127.64965 | 28 ft | 1 kts | 207° |
| 2026-04-26 15:50 | 26.20665 | 127.64966 | 28 ft | 0 kts | 207° |
| 2026-04-26 15:52 | 26.20659 | 127.64963 | 28 ft | 2 kts | 207° |
| 2026-04-26 15:52 | 26.20650 | 127.64954 | 28 ft | 3 kts | 224° |
| 2026-04-26 15:53 | 26.20635 | 127.64914 | 28 ft | 5 kts | 258° |
| 2026-04-26 15:53 | 26.20628 | 127.64867 | 28 ft | 7 kts | 268° |
| 2026-04-26 15:53 | 26.20630 | 127.64814 | 28 ft | 6 kts | 268° |
| 2026-04-26 15:53 | 26.20611 | 127.64764 | 28 ft | 8 kts | 231° |
| 2026-04-26 15:54 | 26.20556 | 127.64748 | 28 ft | 9 kts | 177° |
| 2026-04-26 15:54 | 26.20488 | 127.64751 | 28 ft | 11 kts | 177° |
| 2026-04-26 15:54 | 26.20409 | 127.64755 | 28 ft | 12 kts | 177° |
| 2026-04-26 15:54 | 26.20321 | 127.64759 | 28 ft | 13 kts | 177° |
| 2026-04-26 15:55 | 26.20224 | 127.64765 | 28 ft | 15 kts | 177° |
| 2026-04-26 15:55 | 26.20116 | 127.64769 | 28 ft | 16 kts | 177° |
| 2026-04-26 15:55 | 26.20001 | 127.64774 | 28 ft | 18 kts | 177° |
| 2026-04-26 15:55 | 26.19873 | 127.64781 | 28 ft | 19 kts | 177° |
| 2026-04-26 15:56 | 26.19735 | 127.64787 | 28 ft | 21 kts | 178° |
| 2026-04-26 15:56 | 26.19605 | 127.64793 | 28 ft | 19 kts | 178° |
| 2026-04-26 15:56 | 26.19472 | 127.64798 | 28 ft | 19 kts | 177° |
| 2026-04-26 15:56 | 26.19335 | 127.64806 | 28 ft | 20 kts | 177° |
| 2026-04-26 15:57 | 26.19195 | 127.64811 | 28 ft | 20 kts | 178° |
| 2026-04-26 15:57 | 26.19052 | 127.64818 | 29 ft | 21 kts | 177° |
| 2026-04-26 15:57 | 26.18901 | 127.64826 | 29 ft | 21 kts | 177° |
| 2026-04-26 15:57 | 26.18827 | 127.64820 | 29 ft | 12 kts | 207° |
| 2026-04-26 15:58 | 26.18796 | 127.64695 | 29 ft | 14 kts | 273° |
| 2026-04-26 15:58 | 26.18847 | 127.64618 | 29 ft | 14 kts | 352° |
| 2026-04-26 15:58 | 26.18886 | 127.64618 | 29 ft | 0 kts | 359° |
| 2026-04-26 15:58 | 26.19036 | 127.64611 | 29 ft | 54 kts | 357° |
| 2026-04-26 15:59 | 26.19618 | 127.64585 | 28 ft | 111 kts | 358° |
| 2026-04-26 15:59 | 26.20524 | 127.64542 | 30 ft | 152 kts | 358° |
| 2026-04-26 15:59 | 26.21609 | 127.64509 | 505 ft | 153 kts | 357° |
| 2026-04-26 15:59 | 26.22672 | 127.64462 | 1081 ft | 154 kts | 356° |
| 2026-04-26 16:00 | 26.23754 | 127.64416 | 1631 ft | 158 kts | 356° |
| 2026-04-26 16:00 | 26.24896 | 127.64367 | 1968 ft | 175 kts | 356° |
| 2026-04-26 16:00 | 26.26147 | 127.64058 | 2166 ft | 197 kts | 335° |
| 2026-04-26 16:00 | 26.27396 | 127.63272 | 2464 ft | 217 kts | 329° |
| 2026-04-26 16:01 | 26.28764 | 127.62333 | 2745 ft | 244 kts | 328° |
| 2026-04-26 16:01 | 26.30241 | 127.61329 | 3502 ft | 251 kts | 328° |
| 2026-04-26 16:01 | 26.31741 | 127.60316 | 4359 ft | 254 kts | 329° |
| 2026-04-26 16:01 | 26.33295 | 127.59309 | 5117 ft | 262 kts | 329° |
| 2026-04-26 16:02 | 26.34898 | 127.58309 | 5898 ft | 266 kts | 329° |
| 2026-04-26 16:02 | 26.36534 | 127.57292 | 6679 ft | 271 kts | 329° |
| 2026-04-26 16:02 | 26.38169 | 127.56276 | 7404 ft | 274 kts | 328° |
| 2026-04-26 16:02 | 26.39283 | 127.55544 | 7948 ft | 275 kts | 322° |
| 2026-04-26 16:03 | 26.40851 | 127.53361 | 8929 ft | 277 kts | 291° |
| 2026-04-26 16:03 | 26.41176 | 127.51249 | 9682 ft | 280 kts | 268° |
| 2026-04-26 16:03 | 26.40678 | 127.49142 | 10359 ft | 288 kts | 245° |
| 2026-04-26 16:03 | 26.39461 | 127.47255 | 10547 ft | 312 kts | 232° |
| 2026-04-26 16:04 | 26.37992 | 127.45352 | 10674 ft | 335 kts | 231° |
| 2026-04-26 16:04 | 26.36301 | 127.43472 | 11051 ft | 348 kts | 220° |
| 2026-04-26 16:04 | 26.34241 | 127.42068 | 11611 ft | 356 kts | 207° |
| 2026-04-26 16:04 | 26.31868 | 127.41184 | 12207 ft | 363 kts | 195° |
| 2026-04-26 16:05 | 26.29320 | 127.40917 | 12791 ft | 371 kts | 183° |
| 2026-04-26 16:05 | 26.26724 | 127.40928 | 13378 ft | 373 kts | 183° |
| 2026-04-26 16:05 | 26.24141 | 127.40950 | 13930 ft | 376 kts | 183° |
| 2026-04-26 16:05 | 26.21507 | 127.40980 | 14429 ft | 379 kts | 183° |
| 2026-04-26 16:06 | 26.18847 | 127.41014 | 14914 ft | 383 kts | 184° |
| 2026-04-26 16:06 | 26.16172 | 127.41212 | 15378 ft | 392 kts | 172° |
| 2026-04-26 16:06 | 26.13575 | 127.42246 | 15832 ft | 403 kts | 154° |
| 2026-04-26 16:06 | 26.11339 | 127.44180 | 16293 ft | 413 kts | 134° |
| 2026-04-26 16:07 | 26.09749 | 127.46824 | 16749 ft | 420 kts | 114° |
| 2026-04-26 16:07 | 26.08989 | 127.49963 | 17190 ft | 423 kts | 94° |
| 2026-04-26 16:07 | 26.09168 | 127.53217 | 17653 ft | 423 kts | 76° |
| 2026-04-26 16:07 | 26.09759 | 127.56434 | 18135 ft | 426 kts | 76° |
| 2026-04-26 16:08 | 26.10365 | 127.59675 | 18577 ft | 430 kts | 76° |
| 2026-04-26 16:08 | 26.10978 | 127.62956 | 19004 ft | 434 kts | 76° |
| 2026-04-26 16:08 | 26.11587 | 127.66254 | 19438 ft | 437 kts | 76° |
| 2026-04-26 16:08 | 26.12199 | 127.69598 | 19880 ft | 441 kts | 76° |
| 2026-04-26 16:09 | 26.12804 | 127.72927 | 20321 ft | 444 kts | 76° |
| 2026-04-26 16:09 | 26.13417 | 127.76319 | 20745 ft | 448 kts | 76° |
| 2026-04-26 16:09 | 26.14035 | 127.79731 | 21199 ft | 451 kts | 76° |
| 2026-04-26 16:09 | 26.14659 | 127.83174 | 21604 ft | 455 kts | 76° |
| 2026-04-26 16:10 | 26.15288 | 127.86639 | 21993 ft | 458 kts | 76° |
| 2026-04-26 16:10 | 26.16111 | 127.90027 | 22366 ft | 458 kts | 66° |
| 2026-04-26 16:10 | 26.17463 | 127.93255 | 22753 ft | 457 kts | 56° |
| 2026-04-26 16:10 | 26.19297 | 127.96147 | 23133 ft | 455 kts | 45° |
| 2026-04-26 16:11 | 26.21514 | 127.98591 | 23509 ft | 451 kts | 34° |
| 2026-04-26 16:11 | 26.24088 | 128.00600 | 23844 ft | 447 kts | 25° |
| 2026-04-26 16:11 | 26.26726 | 128.02375 | 24176 ft | 450 kts | 25° |
| 2026-04-26 16:11 | 26.29416 | 128.04188 | 24529 ft | 452 kts | 25° |
| 2026-04-26 16:12 | 26.32121 | 128.06018 | 24863 ft | 454 kts | 25° |
| 2026-04-26 16:12 | 26.34830 | 128.07854 | 25206 ft | 456 kts | 25° |
| 2026-04-26 16:12 | 26.40243 | 128.11519 | 25863 ft | 460 kts | 25° |
| 2026-04-26 16:13 | 26.42989 | 128.13377 | 26198 ft | 462 kts | 25° |
| 2026-04-26 16:13 | 26.45749 | 128.15249 | 26537 ft | 464 kts | 25° |
| 2026-04-26 16:13 | 26.48511 | 128.17127 | 26875 ft | 466 kts | 26° |
| 2026-04-26 16:13 | 26.51292 | 128.19025 | 27206 ft | 469 kts | 26° |
| 2026-04-26 16:14 | 26.54080 | 128.20926 | 27532 ft | 471 kts | 26° |
| 2026-04-26 16:14 | 26.56872 | 128.22825 | 27856 ft | 473 kts | 25° |
| 2026-04-26 16:14 | 26.62508 | 128.26657 | 28676 ft | 473 kts | 25° |
| 2026-04-26 16:15 | 26.65316 | 128.28569 | 29142 ft | 472 kts | 26° |
| 2026-04-26 16:15 | 26.68017 | 128.30715 | 29609 ft | 478 kts | 35° |
| 2026-04-26 16:15 | 26.70406 | 128.33339 | 30046 ft | 484 kts | 45° |
| 2026-04-26 16:16 | 26.74607 | 128.39225 | 30765 ft | 486 kts | 47° |
| 2026-04-26 16:16 | 26.76714 | 128.42192 | 31118 ft | 486 kts | 47° |
| 2026-04-26 16:16 | 26.78821 | 128.45153 | 31481 ft | 486 kts | 47° |
| 2026-04-26 16:16 | 26.80905 | 128.48084 | 31803 ft | 486 kts | 47° |
| 2026-04-26 16:17 | 26.83008 | 128.51047 | 32155 ft | 487 kts | 47° |
| 2026-04-26 16:17 | 26.85116 | 128.54024 | 32536 ft | 487 kts | 47° |
| 2026-04-26 16:17 | 26.87220 | 128.56998 | 32883 ft | 487 kts | 47° |
| 2026-04-26 16:17 | 26.89326 | 128.59977 | 33234 ft | 488 kts | 47° |
| 2026-04-26 16:18 | 26.91494 | 128.62919 | 33596 ft | 485 kts | 41° |
| 2026-04-26 16:18 | 26.96641 | 128.67546 | 34229 ft | 471 kts | 23° |
| 2026-04-26 16:19 | 27.02407 | 128.71048 | 34725 ft | 471 kts | 22° |
| 2026-04-26 16:19 | 27.05279 | 128.72784 | 34975 ft | 472 kts | 22° |
| 2026-04-26 16:19 | 27.10139 | 128.75730 | 35366 ft | 474 kts | 22° |
| 2026-04-26 16:20 | 27.13991 | 128.78068 | 35677 ft | 475 kts | 22° |
| 2026-04-26 16:20 | 27.19828 | 128.81621 | 36132 ft | 477 kts | 22° |
| 2026-04-26 16:20 | 27.22721 | 128.83387 | 36334 ft | 478 kts | 22° |
| 2026-04-26 16:21 | 27.25655 | 128.85181 | 36554 ft | 479 kts | 22° |
| 2026-04-26 16:21 | 27.28600 | 128.86978 | 36773 ft | 480 kts | 22° |
| 2026-04-26 16:21 | 27.31544 | 128.88773 | 36952 ft | 481 kts | 22° |
| 2026-04-26 16:21 | 27.34467 | 128.90553 | 37004 ft | 485 kts | 22° |
| 2026-04-26 16:22 | 27.40473 | 128.94207 | 37001 ft | 494 kts | 22° |
| 2026-04-26 16:22 | 27.46508 | 128.97903 | 37001 ft | 496 kts | 22° |
| 2026-04-26 16:23 | 27.52597 | 129.01639 | 36999 ft | 497 kts | 22° |
| 2026-04-26 16:23 | 27.58645 | 129.05351 | 37000 ft | 498 kts | 22° |
| 2026-04-26 16:24 | 27.64747 | 129.09089 | 36998 ft | 499 kts | 22° |
| 2026-04-26 16:24 | 27.70859 | 129.12840 | 36998 ft | 499 kts | 22° |
| 2026-04-26 16:25 | 27.76965 | 129.16597 | 37000 ft | 500 kts | 22° |
| 2026-04-26 16:25 | 27.83048 | 129.20350 | 36986 ft | 501 kts | 22° |
| 2026-04-26 16:26 | 27.88180 | 129.23517 | 36999 ft | 502 kts | 22° |
| 2026-04-26 16:26 | 27.95324 | 129.27931 | 36992 ft | 503 kts | 23° |
| 2026-04-26 16:27 | 28.01443 | 129.31714 | 36991 ft | 504 kts | 23° |
| 2026-04-26 16:27 | 28.07608 | 129.35532 | 36996 ft | 505 kts | 23° |
| 2026-04-26 16:28 | 28.13799 | 129.39370 | 37001 ft | 506 kts | 23° |
| 2026-04-26 16:28 | 28.19938 | 129.43181 | 36989 ft | 506 kts | 23° |
| 2026-04-26 16:29 | 28.26148 | 129.47040 | 36987 ft | 507 kts | 23° |
| 2026-04-26 16:29 | 28.32308 | 129.50876 | 36982 ft | 508 kts | 23° |
| 2026-04-26 16:30 | 28.38370 | 129.55103 | 36977 ft | 516 kts | 36° |
| 2026-04-26 16:30 | 28.40949 | 129.57970 | 36965 ft | 521 kts | 48° |
| 2026-04-26 16:30 | 28.43020 | 129.61283 | 36964 ft | 523 kts | 60° |
| 2026-04-26 16:31 | 28.44563 | 129.65031 | 36960 ft | 523 kts | 72° |
| 2026-04-26 16:31 | 28.45496 | 129.69014 | 36956 ft | 520 kts | 84° |
| 2026-04-26 16:31 | 28.46410 | 129.77175 | 36950 ft | 520 kts | 86° |
| 2026-04-26 16:32 | 28.47152 | 129.83974 | 36954 ft | 521 kts | 86° |
| 2026-04-26 16:32 | 28.48182 | 129.93508 | 36953 ft | 523 kts | 86° |
| 2026-04-26 16:33 | 28.49063 | 130.01735 | 36959 ft | 524 kts | 86° |
| 2026-04-26 16:33 | 28.50055 | 130.09907 | 36956 ft | 527 kts | 79° |
| 2026-04-26 16:34 | 28.52625 | 130.17753 | 36961 ft | 531 kts | 61° |
| 2026-04-26 16:34 | 28.56706 | 130.24781 | 36948 ft | 532 kts | 54° |
| 2026-04-26 16:35 | 28.60889 | 130.31690 | 36948 ft | 533 kts | 54° |
| 2026-04-26 16:35 | 28.65105 | 130.38674 | 36953 ft | 534 kts | 55° |
| 2026-04-26 16:36 | 28.69301 | 130.45636 | 36954 ft | 536 kts | 55° |
| 2026-04-26 16:36 | 28.73525 | 130.52660 | 36960 ft | 536 kts | 55° |
| 2026-04-26 16:37 | 28.77040 | 130.58508 | 36957 ft | 537 kts | 55° |
| 2026-04-26 16:37 | 28.81271 | 130.65541 | 36963 ft | 537 kts | 55° |
| 2026-04-26 16:38 | 28.85480 | 130.72546 | 36961 ft | 538 kts | 55° |
| 2026-04-26 16:38 | 28.89705 | 130.79590 | 36958 ft | 539 kts | 55° |
| 2026-04-26 16:39 | 28.93939 | 130.86661 | 36949 ft | 539 kts | 55° |
| 2026-04-26 16:39 | 28.98166 | 130.93757 | 37087 ft | 536 kts | 53° |
| 2026-04-26 16:40 | 29.00225 | 130.97212 | 36920 ft | 525 kts | 53° |
| 2026-04-26 16:40 | 29.02256 | 131.00623 | 36945 ft | 514 kts | 53° |
| 2026-04-26 16:40 | 29.06274 | 131.07372 | 36944 ft | 510 kts | 53° |
| 2026-04-26 16:41 | 29.10260 | 131.14078 | 36936 ft | 510 kts | 53° |
| 2026-04-26 16:41 | 29.14236 | 131.20779 | 36935 ft | 510 kts | 53° |
| 2026-04-26 16:42 | 29.18204 | 131.27487 | 36938 ft | 511 kts | 53° |
| 2026-04-26 16:42 | 29.22197 | 131.34239 | 36939 ft | 511 kts | 53° |
| 2026-04-26 16:43 | 29.26175 | 131.40957 | 36935 ft | 511 kts | 53° |
| 2026-04-26 16:43 | 29.30162 | 131.47723 | 36942 ft | 512 kts | 54° |
| 2026-04-26 16:44 | 29.34143 | 131.54490 | 36936 ft | 513 kts | 54° |
| 2026-04-26 16:44 | 29.38135 | 131.61291 | 36947 ft | 513 kts | 54° |
| 2026-04-26 16:45 | 29.42118 | 131.68092 | 36948 ft | 513 kts | 54° |
| 2026-04-26 16:45 | 29.46084 | 131.74862 | 36942 ft | 514 kts | 54° |
| 2026-04-26 16:46 | 29.50074 | 131.81692 | 36946 ft | 514 kts | 54° |
| 2026-04-26 16:46 | 29.54059 | 131.88538 | 36941 ft | 514 kts | 54° |
| 2026-04-26 16:47 | 29.58021 | 131.95349 | 36936 ft | 515 kts | 54° |
| 2026-04-26 16:47 | 29.61997 | 132.02192 | 36923 ft | 515 kts | 54° |
| 2026-04-26 16:48 | 29.66047 | 132.08965 | 36922 ft | 513 kts | 48° |
| 2026-04-26 16:48 | 29.70566 | 132.15296 | 36927 ft | 513 kts | 48° |
| 2026-04-26 16:49 | 29.75121 | 132.21659 | 36939 ft | 514 kts | 48° |
| 2026-04-26 16:49 | 29.79656 | 132.28011 | 37029 ft | 515 kts | 48° |
| 2026-04-26 16:50 | 29.84199 | 132.34395 | 37234 ft | 516 kts | 48° |
| 2026-04-26 16:50 | 29.86473 | 132.37597 | 37374 ft | 516 kts | 48° |
| 2026-04-26 16:50 | 29.88722 | 132.40770 | 37533 ft | 517 kts | 49° |
| 2026-04-26 16:51 | 29.91003 | 132.43992 | 37727 ft | 517 kts | 49° |
| 2026-04-26 16:51 | 29.93279 | 132.47214 | 37930 ft | 518 kts | 49° |
| 2026-04-26 16:51 | 29.95557 | 132.50443 | 38165 ft | 518 kts | 49° |
| 2026-04-26 16:51 | 29.97801 | 132.53627 | 38417 ft | 517 kts | 49° |
| 2026-04-26 16:52 | 30.00066 | 132.56845 | 38670 ft | 516 kts | 49° |
| 2026-04-26 16:52 | 30.01568 | 132.58982 | 38828 ft | 514 kts | 49° |
| 2026-04-26 16:52 | 30.04586 | 132.63279 | 39171 ft | 511 kts | 49° |
| 2026-04-26 16:52 | 30.06784 | 132.66414 | 39449 ft | 508 kts | 49° |
| 2026-04-26 16:53 | 30.08996 | 132.69572 | 39743 ft | 503 kts | 49° |
| 2026-04-26 16:53 | 30.11186 | 132.72705 | 40055 ft | 499 kts | 49° |
| 2026-04-26 16:53 | 30.13356 | 132.75814 | 40384 ft | 493 kts | 49° |
| 2026-04-26 16:53 | 30.15501 | 132.78891 | 40720 ft | 487 kts | 49° |
| 2026-04-26 16:54 | 30.17607 | 132.81920 | 41066 ft | 480 kts | 49° |
| 2026-04-26 16:54 | 30.19694 | 132.84926 | 41419 ft | 473 kts | 50° |
| 2026-04-26 16:54 | 30.21731 | 132.87868 | 41771 ft | 464 kts | 50° |
| 2026-04-26 16:54 | 30.23701 | 132.90719 | 42114 ft | 455 kts | 50° |
| 2026-04-26 16:55 | 30.25658 | 132.93559 | 42397 ft | 447 kts | 50° |
| 2026-04-26 16:55 | 30.27593 | 132.96373 | 42345 ft | 448 kts | 50° |
| 2026-04-26 16:55 | 30.29563 | 132.99238 | 42020 ft | 457 kts | 50° |
| 2026-04-26 16:55 | 30.31559 | 133.02142 | 41831 ft | 462 kts | 50° |
| 2026-04-26 16:56 | 30.35488 | 133.07874 | 42245 ft | 449 kts | 50° |
| 2026-04-26 16:56 | 30.37431 | 133.10719 | 42321 ft | 447 kts | 50° |
| 2026-04-26 16:56 | 30.39372 | 133.13562 | 42102 ft | 453 kts | 50° |
| 2026-04-26 16:57 | 30.41343 | 133.16452 | 41862 ft | 460 kts | 50° |
| 2026-04-26 16:57 | 30.47196 | 133.25060 | 42260 ft | 447 kts | 50° |
| 2026-04-26 16:58 | 30.49127 | 133.27910 | 42137 ft | 451 kts | 50° |
| 2026-04-26 16:58 | 30.50414 | 133.29812 | 41963 ft | 455 kts | 50° |
| 2026-04-26 16:59 | 30.56931 | 133.39473 | 42168 ft | 449 kts | 51° |
| 2026-04-26 16:59 | 30.60786 | 133.45219 | 41937 ft | 455 kts | 51° |
| 2026-04-26 17:00 | 30.64685 | 133.51049 | 41909 ft | 455 kts | 51° |
| 2026-04-26 17:00 | 30.68497 | 133.56773 | 42117 ft | 449 kts | 51° |
| 2026-04-26 17:00 | 30.70415 | 133.59662 | 41966 ft | 453 kts | 51° |
| 2026-04-26 17:01 | 30.72352 | 133.62581 | 41830 ft | 457 kts | 51° |
| 2026-04-26 17:01 | 30.74291 | 133.65511 | 41850 ft | 456 kts | 51° |
| 2026-04-26 17:01 | 30.76215 | 133.68424 | 41991 ft | 452 kts | 51° |
| 2026-04-26 17:01 | 30.78124 | 133.71320 | 42065 ft | 450 kts | 51° |
| 2026-04-26 17:02 | 30.81944 | 133.77135 | 41861 ft | 455 kts | 52° |
| 2026-04-26 17:02 | 30.85776 | 133.82989 | 41931 ft | 453 kts | 52° |
| 2026-04-26 17:03 | 30.89546 | 133.88775 | 41964 ft | 452 kts | 52° |
| 2026-04-26 17:03 | 30.93361 | 133.94654 | 41827 ft | 455 kts | 52° |
| 2026-04-26 17:04 | 30.97152 | 134.00525 | 41952 ft | 451 kts | 52° |
| 2026-04-26 17:04 | 31.00924 | 134.06395 | 41847 ft | 454 kts | 53° |
| 2026-04-26 17:05 | 31.04715 | 134.12320 | 41832 ft | 455 kts | 53° |
| 2026-04-26 17:05 | 31.08473 | 134.18223 | 41923 ft | 452 kts | 53° |
| 2026-04-26 17:06 | 31.12225 | 134.24147 | 41818 ft | 455 kts | 53° |
| 2026-04-26 17:06 | 31.15950 | 134.30061 | 41892 ft | 453 kts | 53° |
| 2026-04-26 17:07 | 31.19672 | 134.36003 | 41866 ft | 454 kts | 54° |
| 2026-04-26 17:07 | 31.23396 | 134.41979 | 41813 ft | 455 kts | 54° |
| 2026-04-26 17:08 | 31.27102 | 134.47960 | 41892 ft | 453 kts | 54° |
| 2026-04-26 17:08 | 31.30798 | 134.53957 | 41822 ft | 455 kts | 54° |
| 2026-04-26 17:09 | 31.33868 | 134.58963 | 41834 ft | 455 kts | 54° |
| 2026-04-26 17:09 | 31.36366 | 134.62995 | 41514 ft | 465 kts | 51° |
| 2026-04-26 17:09 | 31.38458 | 134.65929 | 40807 ft | 486 kts | 47° |
| 2026-04-26 17:10 | 31.40844 | 134.68830 | 40164 ft | 501 kts | 44° |
| 2026-04-26 17:10 | 31.43347 | 134.71717 | 39519 ft | 507 kts | 44° |
| 2026-04-26 17:10 | 31.45906 | 134.74570 | 38941 ft | 510 kts | 38° |
| 2026-04-26 17:10 | 31.48828 | 134.76939 | 38358 ft | 512 kts | 30° |
| 2026-04-26 17:11 | 31.51711 | 134.79412 | 37670 ft | 517 kts | 44° |
| 2026-04-26 17:11 | 31.54177 | 134.82486 | 37081 ft | 517 kts | 51° |
| 2026-04-26 17:11 | 31.56409 | 134.85766 | 36830 ft | 514 kts | 54° |
| 2026-04-26 17:11 | 31.58547 | 134.89129 | 36865 ft | 516 kts | 54° |
| 2026-04-26 17:12 | 31.65262 | 134.99093 | 36861 ft | 520 kts | 50° |
| 2026-04-26 17:13 | 31.70594 | 135.04783 | 36860 ft | 519 kts | 31° |
| 2026-04-26 17:13 | 31.73682 | 135.06865 | 36860 ft | 517 kts | 23° |
| 2026-04-26 17:13 | 31.80426 | 135.09559 | 36855 ft | 508 kts | 6° |
| 2026-04-26 17:14 | 31.83908 | 135.10350 | 36854 ft | 508 kts | 6° |
| 2026-04-26 17:14 | 31.94328 | 135.12620 | 36862 ft | 509 kts | 6° |
| 2026-04-26 17:15 | 32.04815 | 135.14895 | 36866 ft | 510 kts | 6° |
| 2026-04-26 17:16 | 32.11810 | 135.16447 | 36865 ft | 511 kts | 6° |
| 2026-04-26 17:16 | 32.18802 | 135.17995 | 36864 ft | 511 kts | 6° |
| 2026-04-26 17:17 | 32.25758 | 135.19519 | 36863 ft | 511 kts | 6° |
| 2026-04-26 17:17 | 32.32754 | 135.21052 | 36865 ft | 512 kts | 6° |
| 2026-04-26 17:18 | 32.39755 | 135.22595 | 36867 ft | 512 kts | 6° |
| 2026-04-26 17:18 | 32.46756 | 135.24152 | 36866 ft | 512 kts | 6° |
| 2026-04-26 17:19 | 32.57259 | 135.26477 | 36859 ft | 512 kts | 6° |
| 2026-04-26 17:19 | 32.64268 | 135.28022 | 36851 ft | 512 kts | 6° |
| 2026-04-26 17:20 | 32.68956 | 135.29062 | 36851 ft | 512 kts | 6° |
| 2026-04-26 17:20 | 32.78290 | 135.31146 | 36848 ft | 513 kts | 6° |
| 2026-04-26 17:21 | 32.85306 | 135.32710 | 36839 ft | 513 kts | 6° |
| 2026-04-26 17:21 | 32.92330 | 135.34277 | 36846 ft | 514 kts | 6° |
| 2026-04-26 17:22 | 32.99374 | 135.35844 | 36848 ft | 514 kts | 6° |
| 2026-04-26 17:22 | 33.05217 | 135.37152 | 36845 ft | 515 kts | 6° |
| 2026-04-26 17:23 | 33.13405 | 135.38980 | 36844 ft | 515 kts | 6° |
| 2026-04-26 17:23 | 33.20456 | 135.40558 | 36845 ft | 515 kts | 6° |
| 2026-04-26 17:24 | 33.26363 | 135.41876 | 36838 ft | 515 kts | 6° |
| 2026-04-26 17:24 | 33.33349 | 135.43599 | 36417 ft | 522 kts | 14° |
| 2026-04-26 17:25 | 33.36796 | 135.45193 | 35741 ft | 527 kts | 25° |
| 2026-04-26 17:25 | 33.39937 | 135.47351 | 35078 ft | 529 kts | 34° |
| 2026-04-26 17:25 | 33.42912 | 135.49994 | 34196 ft | 536 kts | 38° |
| 2026-04-26 17:25 | 33.45895 | 135.52722 | 33201 ft | 543 kts | 39° |
| 2026-04-26 17:26 | 33.48908 | 135.55477 | 32299 ft | 547 kts | 39° |
| 2026-04-26 17:26 | 33.51932 | 135.58235 | 31641 ft | 544 kts | 39° |
| 2026-04-26 17:26 | 33.54950 | 135.60983 | 30839 ft | 546 kts | 40° |
| 2026-04-26 17:26 | 33.57972 | 135.63734 | 30192 ft | 544 kts | 40° |
| 2026-04-26 17:27 | 33.60973 | 135.66470 | 29476 ft | 541 kts | 40° |
| 2026-04-26 17:27 | 33.63961 | 135.69202 | 28771 ft | 538 kts | 40° |
| 2026-04-26 17:27 | 33.66923 | 135.71911 | 28116 ft | 532 kts | 40° |
| 2026-04-26 17:27 | 33.69858 | 135.74586 | 27507 ft | 526 kts | 40° |
| 2026-04-26 17:28 | 33.72765 | 135.77213 | 26908 ft | 520 kts | 40° |
| 2026-04-26 17:28 | 33.75643 | 135.79802 | 26293 ft | 514 kts | 40° |
| 2026-04-26 17:28 | 33.78491 | 135.82363 | 25698 ft | 509 kts | 40° |
| 2026-04-26 17:28 | 33.81314 | 135.84904 | 25146 ft | 503 kts | 40° |
| 2026-04-26 17:29 | 33.84089 | 135.87408 | 24600 ft | 497 kts | 40° |
| 2026-04-26 17:29 | 33.85912 | 135.89058 | 24240 ft | 493 kts | 40° |
| 2026-04-26 17:29 | 33.89551 | 135.92361 | 23530 ft | 485 kts | 40° |
| 2026-04-26 17:29 | 33.92230 | 135.94797 | 22875 ft | 480 kts | 40° |
| 2026-04-26 17:30 | 33.94843 | 135.97169 | 22287 ft | 474 kts | 39° |
| 2026-04-26 17:30 | 33.97453 | 135.99542 | 21681 ft | 468 kts | 39° |
| 2026-04-26 17:30 | 34.00036 | 136.01898 | 21068 ft | 463 kts | 39° |
| 2026-04-26 17:30 | 34.02594 | 136.04230 | 20499 ft | 458 kts | 39° |
| 2026-04-26 17:31 | 34.05120 | 136.06532 | 19938 ft | 454 kts | 39° |
| 2026-04-26 17:31 | 34.07622 | 136.08808 | 19393 ft | 446 kts | 38° |
| 2026-04-26 17:31 | 34.10060 | 136.11028 | 18781 ft | 431 kts | 38° |
| 2026-04-26 17:31 | 34.12401 | 136.13161 | 18318 ft | 413 kts | 39° |
| 2026-04-26 17:32 | 34.14650 | 136.15213 | 17780 ft | 399 kts | 38° |
| 2026-04-26 17:32 | 34.16826 | 136.17201 | 17266 ft | 385 kts | 38° |
| 2026-04-26 17:32 | 34.18944 | 136.19141 | 16794 ft | 383 kts | 39° |
| 2026-04-26 17:32 | 34.21061 | 136.21085 | 16301 ft | 381 kts | 38° |
| 2026-04-26 17:33 | 34.23154 | 136.22998 | 15808 ft | 372 kts | 37° |
| 2026-04-26 17:33 | 34.25208 | 136.24870 | 15340 ft | 369 kts | 38° |
| 2026-04-26 17:33 | 34.27248 | 136.26727 | 14854 ft | 366 kts | 38° |
| 2026-04-26 17:34 | 34.31313 | 136.30425 | 13889 ft | 364 kts | 38° |
| 2026-04-26 17:34 | 34.33335 | 136.32269 | 13377 ft | 363 kts | 38° |
| 2026-04-26 17:34 | 34.35320 | 136.34083 | 12878 ft | 360 kts | 38° |
| 2026-04-26 17:34 | 34.37316 | 136.35904 | 12399 ft | 359 kts | 38° |
| 2026-04-26 17:35 | 34.39308 | 136.37725 | 11902 ft | 357 kts | 39° |
| 2026-04-26 17:35 | 34.41117 | 136.39765 | 11434 ft | 354 kts | 51° |
| 2026-04-26 17:35 | 34.42551 | 136.42154 | 10941 ft | 348 kts | 63° |
| 2026-04-26 17:35 | 34.43592 | 136.44765 | 10482 ft | 342 kts | 70° |
| 2026-04-26 17:36 | 34.44535 | 136.47375 | 10329 ft | 334 kts | 69° |
| 2026-04-26 17:36 | 34.45459 | 136.49896 | 10144 ft | 317 kts | 70° |
| 2026-04-26 17:36 | 34.46342 | 136.52282 | 9828 ft | 301 kts | 71° |
| 2026-04-26 17:36 | 34.47196 | 136.54599 | 9721 ft | 303 kts | 70° |
| 2026-04-26 17:37 | 34.48052 | 136.56943 | 9594 ft | 302 kts | 64° |
| 2026-04-26 17:37 | 34.48918 | 136.59318 | 9288 ft | 316 kts | 74° |
| 2026-04-26 17:37 | 34.49801 | 136.61752 | 9134 ft | 315 kts | 71° |
| 2026-04-26 17:38 | 34.51518 | 136.66413 | 8282 ft | 298 kts | 71° |
| 2026-04-26 17:38 | 34.52351 | 136.68685 | 7675 ft | 291 kts | 73° |
| 2026-04-26 17:38 | 34.53156 | 136.70891 | 7109 ft | 282 kts | 72° |
| 2026-04-26 17:38 | 34.53942 | 136.73061 | 6821 ft | 279 kts | 72° |
| 2026-04-26 17:39 | 34.54535 | 136.74697 | 6610 ft | 270 kts | 72° |
| 2026-04-26 17:39 | 34.55316 | 136.76847 | 5889 ft | 273 kts | 72° |
| 2026-04-26 17:39 | 34.56070 | 136.78925 | 5510 ft | 262 kts | 72° |
| 2026-04-26 17:39 | 34.56780 | 136.80856 | 5366 ft | 241 kts | 72° |
| 2026-04-26 17:40 | 34.57437 | 136.82643 | 5223 ft | 222 kts | 72° |
| 2026-04-26 17:40 | 34.57871 | 136.83728 | 5146 ft | 213 kts | 65° |
| 2026-04-26 17:40 | 34.59247 | 136.85449 | 5025 ft | 218 kts | 39° |
| 2026-04-26 17:40 | 34.60668 | 136.86174 | 4800 ft | 227 kts | 17° |
| 2026-04-26 17:41 | 34.62254 | 136.86193 | 4457 ft | 229 kts | 354° |
| 2026-04-26 17:41 | 34.63762 | 136.85829 | 4133 ft | 215 kts | 354° |
| 2026-04-26 17:41 | 34.65187 | 136.85486 | 3842 ft | 200 kts | 355° |
| 2026-04-26 17:41 | 34.66500 | 136.85170 | 3566 ft | 185 kts | 356° |
| 2026-04-26 17:42 | 34.67717 | 136.84879 | 3355 ft | 169 kts | 355° |
| 2026-04-26 17:42 | 34.68824 | 136.84614 | 3126 ft | 158 kts | 356° |
| 2026-04-26 17:42 | 34.69879 | 136.84364 | 2917 ft | 154 kts | 356° |
| 2026-04-26 17:42 | 34.70927 | 136.84115 | 2708 ft | 153 kts | 357° |
| 2026-04-26 17:43 | 34.71963 | 136.83867 | 2504 ft | 150 kts | 356° |
| 2026-04-26 17:43 | 34.72974 | 136.83625 | 2318 ft | 146 kts | 355° |
| 2026-04-26 17:43 | 34.73965 | 136.83388 | 2113 ft | 143 kts | 354° |
| 2026-04-26 17:43 | 34.74938 | 136.83155 | 1913 ft | 141 kts | 354° |
| 2026-04-26 17:44 | 34.75894 | 136.82926 | 1729 ft | 139 kts | 354° |
| 2026-04-26 17:44 | 34.76830 | 136.82702 | 1538 ft | 136 kts | 353° |
| 2026-04-26 17:44 | 34.77758 | 136.82480 | 1353 ft | 136 kts | 351° |
| 2026-04-26 17:44 | 34.78684 | 136.82258 | 1173 ft | 135 kts | 352° |
| 2026-04-26 17:45 | 34.79603 | 136.82038 | 987 ft | 136 kts | 351° |
| 2026-04-26 17:45 | 34.80524 | 136.81817 | 810 ft | 133 kts | 348° |
| 2026-04-26 17:45 | 34.81430 | 136.81600 | 639 ft | 135 kts | 349° |
| 2026-04-26 17:45 | 34.82337 | 136.81382 | 461 ft | 130 kts | 349° |
| 2026-04-26 17:46 | 34.83230 | 136.81167 | 286 ft | 133 kts | 347° |
| 2026-04-26 17:46 | 34.84127 | 136.80948 | 103 ft | 130 kts | 348° |
| 2026-04-26 17:46 | 34.84975 | 136.80748 | 30 ft | 114 kts | 349° |
| 2026-04-26 17:46 | 34.85588 | 136.80597 | 25 ft | 65 kts | 349° |
| 2026-04-26 17:47 | 34.85876 | 136.80529 | 28 ft | 29 kts | 349° |
| 2026-04-26 17:47 | 34.86003 | 136.80498 | 30 ft | 26 kts | 348° |
| 2026-04-26 17:47 | 34.86220 | 136.80522 | 28 ft | 22 kts | 19° |
| 2026-04-26 17:47 | 34.86324 | 136.80589 | 28 ft | 9 kts | 64° |
| 2026-04-26 17:48 | 34.86326 | 136.80596 | 28 ft | 0 kts | 71° |
| 2026-04-26 17:48 | 34.86326 | 136.80597 | 28 ft | 0 kts | 71° |
| 2026-04-26 17:48 | 34.86329 | 136.80613 | 28 ft | 5 kts | 83° |
| 2026-04-26 17:49 | 34.86312 | 136.80658 | 28 ft | 7 kts | 136° |
| 2026-04-26 17:49 | 34.86261 | 136.80680 | 28 ft | 9 kts | 168° |